sensor_id;sensor_type;location;lat;lon;timestamp;pressure;altitude;pressure_sealevel;temperature;humidity
72116;BME280;59991;52.140;5.428;2022-11-11T00:00:05;102818.78;;;9.70;90.69
72116;BME280;59991;52.140;5.428;2022-11-11T00:00:38;102825.03;;;9.71;91.00
72116;BME280;59991;52.140;5.428;2022-11-11T00:01:12;102821.81;;;9.69;90.84
72116;BME280;59991;52.140;5.428;2022-11-11T00:01:45;102830.31;;;9.76;91.12
72116;BME280;59991;52.140;5.428;2022-11-11T00:02:19;102828.56;;;9.72;90.79
72116;BME280;59991;52.140;5.428;2022-11-11T00:02:54;102823.59;;;9.74;90.99
72116;BME280;59991;52.140;5.428;2022-11-11T00:03:30;102824.22;;;9.70;91.03
72116;BME280;59991;52.140;5.428;2022-11-11T00:04:02;102826.63;;;9.72;90.96
72116;BME280;59991;52.140;5.428;2022-11-11T00:04:38;102821.97;;;9.73;90.49
72116;BME280;59991;52.140;5.428;2022-11-11T00:05:11;102818.94;;;9.74;91.02
72116;BME280;59991;52.140;5.428;2022-11-11T00:05:45;102815.72;;;9.72;90.82
72116;BME280;59991;52.140;5.428;2022-11-11T00:06:18;102813.31;;;9.70;91.27
72116;BME280;59991;52.140;5.428;2022-11-11T00:06:50;102811.09;;;9.73;91.32
72116;BME280;59991;52.140;5.428;2022-11-11T00:07:23;102808.34;;;9.73;91.12
72116;BME280;59991;52.140;5.428;2022-11-11T00:07:57;102810.28;;;9.72;91.03
72116;BME280;59991;52.140;5.428;2022-11-11T00:08:31;102811.88;;;9.73;91.29
72116;BME280;59991;52.140;5.428;2022-11-11T00:09:02;102803.22;;;9.71;91.55
72116;BME280;59991;52.140;5.428;2022-11-11T00:09:35;102811.09;;;9.73;91.26
72116;BME280;59991;52.140;5.428;2022-11-11T00:10:08;102819.75;;;9.75;91.15
72116;BME280;59991;52.140;5.428;2022-11-11T00:10:43;102809.00;;;9.69;91.45
72116;BME280;59991;52.140;5.428;2022-11-11T00:11:24;102816.22;;;9.74;91.06
72116;BME280;59991;52.140;5.428;2022-11-11T00:11:59;102809.16;;;9.73;91.29
72116;BME280;59991;52.140;5.428;2022-11-11T00:12:31;102816.69;;;9.76;91.09
72116;BME280;59991;52.140;5.428;2022-11-11T00:13:03;102803.72;;;9.73;91.05
72116;BME280;59991;52.140;5.428;2022-11-11T00:13:36;102816.38;;;9.78;91.22
72116;BME280;59991;52.140;5.428;2022-11-11T00:14:08;102809.63;;;9.75;90.81
72116;BME280;59991;52.140;5.428;2022-11-11T00:14:41;102817.81;;;9.75;91.24
72116;BME280;59991;52.140;5.428;2022-11-11T00:15:15;102818.63;;;9.76;90.74
72116;BME280;59991;52.140;5.428;2022-11-11T00:15:46;102824.88;;;9.76;91.39
72116;BME280;59991;52.140;5.428;2022-11-11T00:16:23;102832.06;;;9.81;91.05
72116;BME280;59991;52.140;5.428;2022-11-11T00:16:59;102833.84;;;9.77;91.35
72116;BME280;59991;52.140;5.428;2022-11-11T00:17:49;102837.03;;;9.79;91.40
72116;BME280;59991;52.140;5.428;2022-11-11T00:18:48;102830.00;;;9.78;91.06
72116;BME280;59991;52.140;5.428;2022-11-11T00:19:38;102836.72;;;9.80;91.40
72116;BME280;59991;52.140;5.428;2022-11-11T00:20:28;102830.94;;;9.82;91.08
72116;BME280;59991;52.140;5.428;2022-11-11T00:21:18;102836.84;;;9.84;91.20
72116;BME280;59991;52.140;5.428;2022-11-11T00:22:21;102836.84;;;9.84;91.58
72116;BME280;59991;52.140;5.428;2022-11-11T00:23:23;102837.66;;;9.84;90.84
72116;BME280;59991;52.140;5.428;2022-11-11T00:24:22;102836.84;;;9.84;91.03
72116;BME280;59991;52.140;5.428;2022-11-11T00:25:14;102839.25;;;9.85;91.35
72116;BME280;59991;52.140;5.428;2022-11-11T00:25:50;102827.56;;;9.85;91.29
72116;BME280;59991;52.140;5.428;2022-11-11T00:26:32;102824.84;;;9.85;91.29
72116;BME280;59991;52.140;5.428;2022-11-11T00:27:14;102830.28;;;9.85;91.30
72116;BME280;59991;52.140;5.428;2022-11-11T00:27:46;102841.19;;;9.85;91.43
72116;BME280;59991;52.140;5.428;2022-11-11T00:28:18;102829.47;;;9.84;91.40
72116;BME280;59991;52.140;5.428;2022-11-11T00:28:49;102831.88;;;9.86;91.36
72116;BME280;59991;52.140;5.428;2022-11-11T00:29:21;102830.28;;;9.85;91.56
72116;BME280;59991;52.140;5.428;2022-11-11T00:29:52;102837.34;;;9.86;91.25
72116;BME280;59991;52.140;5.428;2022-11-11T00:30:26;102825.97;;;9.84;91.54
72116;BME280;59991;52.140;5.428;2022-11-11T00:31:05;102824.84;;;9.85;91.55
72116;BME280;59991;52.140;5.428;2022-11-11T00:31:50;102825.63;;;9.85;91.56
72116;BME280;59991;52.140;5.428;2022-11-11T00:32:40;102829.97;;;9.86;91.18
72116;BME280;59991;52.140;5.428;2022-11-11T00:33:16;102835.41;;;9.86;91.24
72116;BME280;59991;52.140;5.428;2022-11-11T00:33:54;102824.84;;;9.85;91.02
72116;BME280;59991;52.140;5.428;2022-11-11T00:34:31;102819.38;;;9.85;91.58
72116;BME280;59991;52.140;5.428;2022-11-11T00:35:02;102831.25;;;9.89;91.19
72116;BME280;59991;52.140;5.428;2022-11-11T00:35:53;102827.06;;;9.91;91.05
72116;BME280;59991;52.140;5.428;2022-11-11T00:36:25;102829.31;;;9.89;91.38
72116;BME280;59991;52.140;5.428;2022-11-11T00:37:06;102828.19;;;9.90;91.47
72116;BME280;59991;52.140;5.428;2022-11-11T00:37:38;102825.47;;;9.90;91.41
72116;BME280;59991;52.140;5.428;2022-11-11T00:38:11;102826.28;;;9.91;91.51
72116;BME280;59991;52.140;5.428;2022-11-11T00:39:06;102826.28;;;9.91;91.34
72116;BME280;59991;52.140;5.428;2022-11-11T00:39:37;102829.00;;;9.91;91.11
72116;BME280;59991;52.140;5.428;2022-11-11T00:40:10;102830.59;;;9.92;91.38
72116;BME280;59991;52.140;5.428;2022-11-11T00:40:42;102828.19;;;9.90;91.43
72116;BME280;59991;52.140;5.428;2022-11-11T00:41:21;102822.91;;;9.94;91.10
72116;BME280;59991;52.140;5.428;2022-11-11T00:41:53;102820.19;;;9.94;90.88
72116;BME280;59991;52.140;5.428;2022-11-11T00:42:25;102818.91;;;9.91;91.10
72116;BME280;59991;52.140;5.428;2022-11-11T00:42:59;102826.75;;;9.93;91.41
72116;BME280;59991;52.140;5.428;2022-11-11T00:43:31;102825.94;;;9.92;91.52
72116;BME280;59991;52.140;5.428;2022-11-11T00:44:04;102822.75;;;9.90;91.16
72116;BME280;59991;52.140;5.428;2022-11-11T00:44:37;102826.28;;;9.91;91.43
72116;BME280;59991;52.140;5.428;2022-11-11T00:45:13;102818.75;;;9.88;91.12
72116;BME280;59991;52.140;5.428;2022-11-11T00:45:47;102818.41;;;9.89;91.41
72116;BME280;59991;52.140;5.428;2022-11-11T00:46:21;102825.16;;;9.92;91.23
72116;BME280;59991;52.140;5.428;2022-11-11T00:47:11;102816.16;;;9.91;91.26
72116;BME280;59991;52.140;5.428;2022-11-11T00:48:01;102819.06;;;9.95;91.04
72116;BME280;59991;52.140;5.428;2022-11-11T00:48:51;102822.91;;;9.94;91.12
72116;BME280;59991;52.140;5.428;2022-11-11T00:49:41;102833.81;;;9.94;91.32
72116;BME280;59991;52.140;5.428;2022-11-11T00:50:31;102828.34;;;9.94;91.23
72116;BME280;59991;52.140;5.428;2022-11-11T00:51:20;102828.34;;;9.94;91.09
72116;BME280;59991;52.140;5.428;2022-11-11T00:51:52;102830.28;;;9.93;91.16
72116;BME280;59991;52.140;5.428;2022-11-11T00:52:23;102836.53;;;9.94;91.23
72116;BME280;59991;52.140;5.428;2022-11-11T00:52:55;102829.16;;;9.94;91.13
72116;BME280;59991;52.140;5.428;2022-11-11T00:53:28;102831.09;;;9.94;91.09
72116;BME280;59991;52.140;5.428;2022-11-11T00:54:00;102833.00;;;9.93;91.29
72116;BME280;59991;52.140;5.428;2022-11-11T00:54:32;102829.16;;;9.94;91.24
72116;BME280;59991;52.140;5.428;2022-11-11T00:55:03;102831.09;;;9.94;91.28
72116;BME280;59991;52.140;5.428;2022-11-11T00:55:35;102826.75;;;9.93;91.27
72116;BME280;59991;52.140;5.428;2022-11-11T00:56:07;102824.50;;;9.95;91.46
72116;BME280;59991;52.140;5.428;2022-11-11T00:56:38;102824.34;;;9.91;91.35
72116;BME280;59991;52.140;5.428;2022-11-11T00:57:10;102827.22;;;9.95;91.23
72116;BME280;59991;52.140;5.428;2022-11-11T00:57:47;102818.41;;;9.89;91.50
72116;BME280;59991;52.140;5.428;2022-11-11T00:58:26;102825.63;;;9.94;91.21
72116;BME280;59991;52.140;5.428;2022-11-11T00:58:59;102821.78;;;9.95;91.16
72116;BME280;59991;52.140;5.428;2022-11-11T00:59:34;102825.16;;;9.92;91.15
72116;BME280;59991;52.140;5.428;2022-11-11T01:00:06;102809.13;;;9.90;91.50
72116;BME280;59991;52.140;5.428;2022-11-11T01:00:38;102823.38;;;9.96;91.08
72116;BME280;59991;52.140;5.428;2022-11-11T01:01:09;102813.59;;;9.95;91.08
72116;BME280;59991;52.140;5.428;2022-11-11T01:01:42;102813.75;;;9.98;91.23
72116;BME280;59991;52.140;5.428;2022-11-11T01:02:14;102814.41;;;9.95;91.34
72116;BME280;59991;52.140;5.428;2022-11-11T01:02:45;102809.28;;;9.94;90.87
72116;BME280;59991;52.140;5.428;2022-11-11T01:03:17;102814.88;;;9.97;91.15
72116;BME280;59991;52.140;5.428;2022-11-11T01:03:49;102808.97;;;9.95;91.16
72116;BME280;59991;52.140;5.428;2022-11-11T01:04:25;102809.75;;;9.96;91.68
72116;BME280;59991;52.140;5.428;2022-11-11T01:04:57;102809.75;;;9.96;91.19
72116;BME280;59991;52.140;5.428;2022-11-11T01:05:28;102803.19;;;9.97;91.08
72116;BME280;59991;52.140;5.428;2022-11-11T01:06:01;102812.00;;;9.94;91.40
72116;BME280;59991;52.140;5.428;2022-11-11T01:06:36;102801.75;;;9.91;91.11
72116;BME280;59991;52.140;5.428;2022-11-11T01:07:09;102801.91;;;9.94;91.38
72116;BME280;59991;52.140;5.428;2022-11-11T01:07:41;102801.91;;;9.94;91.33
72116;BME280;59991;52.140;5.428;2022-11-11T01:08:13;102802.22;;;9.93;91.07
72116;BME280;59991;52.140;5.428;2022-11-11T01:08:44;102808.47;;;9.93;91.67
72116;BME280;59991;52.140;5.428;2022-11-11T01:09:24;102802.69;;;9.95;91.72
72116;BME280;59991;52.140;5.428;2022-11-11T01:09:56;102812.97;;;9.98;91.42
72116;BME280;59991;52.140;5.428;2022-11-11T01:10:31;102802.69;;;9.95;91.39
72116;BME280;59991;52.140;5.428;2022-11-11T01:11:18;102806.22;;;9.95;91.55
72116;BME280;59991;52.140;5.428;2022-11-11T01:11:50;102806.22;;;9.95;91.26
72116;BME280;59991;52.140;5.428;2022-11-11T01:12:22;102811.34;;;9.97;91.06
72116;BME280;59991;52.140;5.428;2022-11-11T01:12:58;102807.69;;;9.93;91.42
72116;BME280;59991;52.140;5.428;2022-11-11T01:13:45;102820.34;;;9.97;91.04
72116;BME280;59991;52.140;5.428;2022-11-11T01:14:17;102810.22;;;9.98;91.31
72116;BME280;59991;52.140;5.428;2022-11-11T01:14:51;102813.59;;;9.95;90.88
72116;BME280;59991;52.140;5.428;2022-11-11T01:15:24;102812.97;;;9.98;91.56
72116;BME280;59991;52.140;5.428;2022-11-11T01:16:03;102814.56;;;9.99;91.52
72116;BME280;59991;52.140;5.428;2022-11-11T01:16:35;102814.56;;;9.99;91.19
72116;BME280;59991;52.140;5.428;2022-11-11T01:17:11;102802.69;;;9.95;91.34
72116;BME280;59991;52.140;5.428;2022-11-11T01:17:47;102804.78;;;9.98;91.46
72116;BME280;59991;52.140;5.428;2022-11-11T01:18:23;102804.78;;;9.98;91.34
72116;BME280;59991;52.140;5.428;2022-11-11T01:18:56;102809.13;;;9.99;91.13
72116;BME280;59991;52.140;5.428;2022-11-11T01:19:27;102809.44;;;9.97;90.90
72116;BME280;59991;52.140;5.428;2022-11-11T01:19:59;102803.66;;;9.99;91.13
72116;BME280;59991;52.140;5.428;2022-11-11T01:20:35;102800.47;;;9.97;91.06
72116;BME280;59991;52.140;5.428;2022-11-11T01:21:12;102810.34;;;10.01;91.12
72116;BME280;59991;52.140;5.428;2022-11-11T01:21:44;102806.72;;;9.97;91.18
72116;BME280;59991;52.140;5.428;2022-11-11T01:22:16;102815.00;;;10.01;90.99
72116;BME280;59991;52.140;5.428;2022-11-11T01:22:47;102811.34;;;9.97;91.43
72116;BME280;59991;52.140;5.428;2022-11-11T01:23:19;102816.97;;;10.00;91.27
72116;BME280;59991;52.140;5.428;2022-11-11T01:24:43;102806.84;;;10.01;91.09
72116;BME280;59991;52.140;5.428;2022-11-11T01:25:16;102808.44;;;10.02;91.20
72116;BME280;59991;52.140;5.428;2022-11-11T01:25:48;102806.19;;;10.04;91.36
72116;BME280;59991;52.140;5.428;2022-11-11T01:26:24;102807.31;;;10.03;91.11
72116;BME280;59991;52.140;5.428;2022-11-11T01:27:02;102806.84;;;10.01;91.32
72116;BME280;59991;52.140;5.428;2022-11-11T01:27:33;102803.66;;;9.99;91.30
72116;BME280;59991;52.140;5.428;2022-11-11T01:28:06;102808.13;;;10.03;91.10
72116;BME280;59991;52.140;5.428;2022-11-11T01:28:37;102796.28;;;9.99;91.24
72116;BME280;59991;52.140;5.428;2022-11-11T01:29:11;102803.94;;;10.06;91.34
72116;BME280;59991;52.140;5.428;2022-11-11T01:29:44;102808.13;;;10.03;91.09
72116;BME280;59991;52.140;5.428;2022-11-11T01:30:16;102797.88;;;10.00;91.06
72116;BME280;59991;52.140;5.428;2022-11-11T01:30:50;102798.66;;;10.01;91.13
72116;BME280;59991;52.140;5.428;2022-11-11T01:31:23;102799.81;;;10.00;91.30
72116;BME280;59991;52.140;5.428;2022-11-11T01:31:58;102790.47;;;10.01;91.27
72116;BME280;59991;52.140;5.428;2022-11-11T01:32:33;102798.34;;;10.02;91.14
72116;BME280;59991;52.140;5.428;2022-11-11T01:33:08;102797.09;;;10.00;91.40
72116;BME280;59991;52.140;5.428;2022-11-11T01:33:42;102799.13;;;10.03;91.15
72116;BME280;59991;52.140;5.428;2022-11-11T01:34:13;102792.88;;;10.02;91.50
72116;BME280;59991;52.140;5.428;2022-11-11T01:34:45;102796.88;;;10.05;91.33
72116;BME280;59991;52.140;5.428;2022-11-11T01:35:16;102795.59;;;10.02;91.45
72116;BME280;59991;52.140;5.428;2022-11-11T01:35:48;102800.75;;;10.04;91.03
72116;BME280;59991;52.140;5.428;2022-11-11T01:36:22;102789.72;;;10.00;90.69
72116;BME280;59991;52.140;5.428;2022-11-11T01:36:57;102786.19;;;10.00;90.96
72116;BME280;59991;52.140;5.428;2022-11-11T01:37:28;102798.66;;;10.01;91.15
72116;BME280;59991;52.140;5.428;2022-11-11T01:38:05;102801.38;;;10.01;91.55
72116;BME280;59991;52.140;5.428;2022-11-11T01:38:48;102797.09;;;10.00;91.17
72116;BME280;59991;52.140;5.428;2022-11-11T01:39:20;102801.38;;;10.01;91.52
72116;BME280;59991;52.140;5.428;2022-11-11T01:39:55;102793.56;;;9.99;91.25
72116;BME280;59991;52.140;5.428;2022-11-11T01:40:29;102790.34;;;9.97;91.51
72116;BME280;59991;52.140;5.428;2022-11-11T01:41:01;102795.47;;;9.99;91.58
72116;BME280;59991;52.140;5.428;2022-11-11T01:41:58;102787.97;;;9.96;91.43
72116;BME280;59991;52.140;5.428;2022-11-11T01:43:12;102793.88;;;9.98;91.15
72116;BME280;59991;52.140;5.428;2022-11-11T01:43:46;102789.88;;;9.95;91.33
72116;BME280;59991;52.140;5.428;2022-11-11T01:44:42;102796.13;;;9.96;91.23
72116;BME280;59991;52.140;5.428;2022-11-11T01:45:43;102806.06;;;10.00;91.30
72116;BME280;59991;52.140;5.428;2022-11-11T01:46:27;102806.38;;;9.99;91.43
72116;BME280;59991;52.140;5.428;2022-11-11T01:47:01;102818.09;;;9.99;91.59
72116;BME280;59991;52.140;5.428;2022-11-11T01:49:59;102813.44;;;10.00;91.47
72116;BME280;59991;52.140;5.428;2022-11-11T01:50:31;102816.16;;;10.00;91.08
72116;BME280;59991;52.140;5.428;2022-11-11T01:51:05;102825.16;;;10.00;91.33
72116;BME280;59991;52.140;5.428;2022-11-11T01:51:52;102836.81;;;10.01;91.83
72116;BME280;59991;52.140;5.428;2022-11-11T01:52:28;102834.09;;;10.01;91.17
72116;BME280;59991;52.140;5.428;2022-11-11T01:53:01;102828.63;;;10.01;91.43
72116;BME280;59991;52.140;5.428;2022-11-11T01:53:32;102831.38;;;10.01;91.34
72116;BME280;59991;52.140;5.428;2022-11-11T01:54:07;102838.41;;;10.02;91.51
72116;BME280;59991;52.140;5.428;2022-11-11T01:55:04;102826.72;;;10.01;91.27
72116;BME280;59991;52.140;5.428;2022-11-11T01:55:41;102827.06;;;10.00;91.56
72116;BME280;59991;52.140;5.428;2022-11-11T01:56:15;102828.50;;;9.97;91.14
72116;BME280;59991;52.140;5.428;2022-11-11T01:56:49;102819.22;;;9.98;91.48
72116;BME280;59991;52.140;5.428;2022-11-11T01:57:36;102825.47;;;9.99;91.06
72116;BME280;59991;52.140;5.428;2022-11-11T01:58:12;102824.97;;;9.97;91.25
72116;BME280;59991;52.140;5.428;2022-11-11T01:58:51;102829.00;;;9.99;91.29
72116;BME280;59991;52.140;5.428;2022-11-11T01:59:25;102826.28;;;9.99;91.44
72116;BME280;59991;52.140;5.428;2022-11-11T02:00:07;102825.78;;;9.97;91.39
72116;BME280;59991;52.140;5.428;2022-11-11T02:00:41;102830.91;;;9.99;91.06
72116;BME280;59991;52.140;5.428;2022-11-11T02:01:16;102823.06;;;9.97;91.31
72116;BME280;59991;52.140;5.428;2022-11-11T02:01:51;102830.59;;;10.00;91.48
72116;BME280;59991;52.140;5.428;2022-11-11T02:02:42;102822.75;;;9.99;91.30
72116;BME280;59991;52.140;5.428;2022-11-11T02:03:15;102824.66;;;9.98;91.10
72116;BME280;59991;52.140;5.428;2022-11-11T02:03:50;102829.13;;;10.03;91.12
72116;BME280;59991;52.140;5.428;2022-11-11T02:04:43;102830.25;;;10.02;90.94
72116;BME280;59991;52.140;5.428;2022-11-11T02:05:40;102826.41;;;10.03;91.25
72116;BME280;59991;52.140;5.428;2022-11-11T02:06:12;102823.19;;;10.01;91.06
72116;BME280;59991;52.140;5.428;2022-11-11T02:06:44;102828.63;;;10.01;91.12
72116;BME280;59991;52.140;5.428;2022-11-11T02:07:17;102816.97;;;10.00;91.04
72116;BME280;59991;52.140;5.428;2022-11-11T02:07:49;102822.41;;;10.00;90.78
72116;BME280;59991;52.140;5.428;2022-11-11T02:08:27;102822.06;;;10.02;91.17
72116;BME280;59991;52.140;5.428;2022-11-11T02:09:04;102828.31;;;10.02;90.95
72116;BME280;59991;52.140;5.428;2022-11-11T02:09:40;102825.59;;;10.02;91.28
72116;BME280;59991;52.140;5.428;2022-11-11T02:10:12;102817.75;;;10.01;91.25
72116;BME280;59991;52.140;5.428;2022-11-11T02:10:45;102820.94;;;10.03;91.09
72116;BME280;59991;52.140;5.428;2022-11-11T02:11:19;102818.88;;;10.00;91.07
72116;BME280;59991;52.140;5.428;2022-11-11T02:12:11;102821.25;;;10.01;91.07
72116;BME280;59991;52.140;5.428;2022-11-11T02:13:01;102820.47;;;10.01;90.78
72116;BME280;59991;52.140;5.428;2022-11-11T02:13:51;102818.88;;;10.00;91.23
72116;BME280;59991;52.140;5.428;2022-11-11T02:14:44;102820.47;;;10.01;91.31
72116;BME280;59991;52.140;5.428;2022-11-11T02:15:17;102822.75;;;9.99;91.40
72116;BME280;59991;52.140;5.428;2022-11-11T02:15:48;102818.09;;;9.99;91.50
72116;BME280;59991;52.140;5.428;2022-11-11T02:16:20;102816.97;;;10.00;91.23
72116;BME280;59991;52.140;5.428;2022-11-11T02:16:51;102820.81;;;9.99;91.24
72116;BME280;59991;52.140;5.428;2022-11-11T02:17:23;102825.16;;;10.00;91.04
72116;BME280;59991;52.140;5.428;2022-11-11T02:17:55;102821.63;;;10.00;91.21
72116;BME280;59991;52.140;5.428;2022-11-11T02:18:27;102813.75;;;9.98;91.32
72116;BME280;59991;52.140;5.428;2022-11-11T02:19:05;102819.22;;;9.98;90.91
72116;BME280;59991;52.140;5.428;2022-11-11T02:19:44;102812.16;;;9.97;91.28
72116;BME280;59991;52.140;5.428;2022-11-11T02:20:23;102806.72;;;9.97;90.93
72116;BME280;59991;52.140;5.428;2022-11-11T02:20:59;102821.75;;;10.03;91.43
72116;BME280;59991;52.140;5.428;2022-11-11T02:21:36;102809.91;;;9.99;91.10
72116;BME280;59991;52.140;5.428;2022-11-11T02:22:17;102812.28;;;10.01;91.04
72116;BME280;59991;52.140;5.428;2022-11-11T02:23:09;102816.28;;;10.03;91.24
72116;BME280;59991;52.140;5.428;2022-11-11T02:24:06;102821.75;;;10.03;91.10
72116;BME280;59991;52.140;5.428;2022-11-11T02:24:41;102811.50;;;10.00;91.07
72116;BME280;59991;52.140;5.428;2022-11-11T02:25:16;102815.50;;;10.03;91.11
72116;BME280;59991;52.140;5.428;2022-11-11T02:25:49;102816.28;;;10.03;91.30
72116;BME280;59991;52.140;5.428;2022-11-11T02:26:24;102822.06;;;10.02;90.99
72116;BME280;59991;52.140;5.428;2022-11-11T02:26:57;102818.22;;;10.03;91.14
72116;BME280;59991;52.140;5.428;2022-11-11T02:27:30;102814.69;;;10.02;90.90
72116;BME280;59991;52.140;5.428;2022-11-11T02:28:04;102817.41;;;10.02;91.04
72116;BME280;59991;52.140;5.428;2022-11-11T02:28:37;102808.44;;;10.02;90.96
72116;BME280;59991;52.140;5.428;2022-11-11T02:29:12;102812.75;;;10.03;91.29
72116;BME280;59991;52.140;5.428;2022-11-11T02:29:47;102815.50;;;10.03;90.95
72116;BME280;59991;52.140;5.428;2022-11-11T02:30:38;102816.28;;;10.03;91.18
72116;BME280;59991;52.140;5.428;2022-11-11T02:31:09;102816.28;;;10.03;91.17
72116;BME280;59991;52.140;5.428;2022-11-11T02:31:41;102811.97;;;10.02;91.10
72116;BME280;59991;52.140;5.428;2022-11-11T02:32:13;102815.50;;;10.03;91.36
72116;BME280;59991;52.140;5.428;2022-11-11T02:32:49;102818.22;;;10.03;90.99
72116;BME280;59991;52.140;5.428;2022-11-11T02:33:21;102825.28;;;10.04;90.90
72116;BME280;59991;52.140;5.428;2022-11-11T02:33:53;102819.00;;;10.03;91.10
72116;BME280;59991;52.140;5.428;2022-11-11T02:34:31;102822.53;;;10.04;91.36
72116;BME280;59991;52.140;5.428;2022-11-11T02:35:11;102811.63;;;10.04;91.23
72116;BME280;59991;52.140;5.428;2022-11-11T02:35:45;102821.75;;;10.03;91.32
72116;BME280;59991;52.140;5.428;2022-11-11T02:36:18;102820.94;;;10.03;91.14
72116;BME280;59991;52.140;5.428;2022-11-11T02:36:50;102804.59;;;10.03;91.03
72116;BME280;59991;52.140;5.428;2022-11-11T02:37:25;102819.81;;;10.04;90.99
72116;BME280;59991;52.140;5.428;2022-11-11T02:37:57;102810.84;;;10.03;91.08
72116;BME280;59991;52.140;5.428;2022-11-11T02:38:29;102811.16;;;10.02;91.30
72116;BME280;59991;52.140;5.428;2022-11-11T02:39:00;102823.66;;;10.03;91.52
72116;BME280;59991;52.140;5.428;2022-11-11T02:39:39;102811.50;;;10.00;91.17
72116;BME280;59991;52.140;5.428;2022-11-11T02:40:44;102811.97;;;10.02;91.26
72116;BME280;59991;52.140;5.428;2022-11-11T02:41:34;102803.78;;;10.02;91.35
72116;BME280;59991;52.140;5.428;2022-11-11T02:42:24;102809.13;;;9.99;91.28
72116;BME280;59991;52.140;5.428;2022-11-11T02:42:56;102812.28;;;10.01;90.94
72116;BME280;59991;52.140;5.428;2022-11-11T02:43:31;102811.50;;;10.00;90.94
72116;BME280;59991;52.140;5.428;2022-11-11T02:44:05;102802.06;;;9.98;91.21
72116;BME280;59991;52.140;5.428;2022-11-11T02:44:36;102805.25;;;10.00;91.48
72116;BME280;59991;52.140;5.428;2022-11-11T02:45:08;102817.41;;;10.02;91.23
72116;BME280;59991;52.140;5.428;2022-11-11T02:45:40;102811.50;;;10.00;91.05
72116;BME280;59991;52.140;5.428;2022-11-11T02:46:11;102802.84;;;9.98;91.44
72116;BME280;59991;52.140;5.428;2022-11-11T02:46:46;102812.28;;;10.01;91.49
72116;BME280;59991;52.140;5.428;2022-11-11T02:47:19;102808.00;;;10.00;91.51
72116;BME280;59991;52.140;5.428;2022-11-11T02:47:53;102807.03;;;9.96;90.98
72116;BME280;59991;52.140;5.428;2022-11-11T02:48:26;102814.09;;;9.97;91.11
72116;BME280;59991;52.140;5.428;2022-11-11T02:48:58;102805.09;;;9.96;91.48
72116;BME280;59991;52.140;5.428;2022-11-11T02:49:35;102816.50;;;9.98;91.02
72116;BME280;59991;52.140;5.428;2022-11-11T02:50:07;102815.69;;;9.98;91.18
72116;BME280;59991;52.140;5.428;2022-11-11T02:50:56;102820.00;;;9.99;91.19
72116;BME280;59991;52.140;5.428;2022-11-11T02:51:28;102815.69;;;9.98;91.43
72116;BME280;59991;52.140;5.428;2022-11-11T02:51:59;102812.16;;;9.97;91.31
72116;BME280;59991;52.140;5.428;2022-11-11T02:52:31;102817.63;;;9.97;91.19
72116;BME280;59991;52.140;5.428;2022-11-11T02:53:03;102812.97;;;9.98;91.58
72116;BME280;59991;52.140;5.428;2022-11-11T02:53:35;102815.69;;;9.98;90.89
72116;BME280;59991;52.140;5.428;2022-11-11T02:54:06;102818.41;;;9.98;91.52
72116;BME280;59991;52.140;5.428;2022-11-11T02:54:38;102816.81;;;9.97;91.09
72116;BME280;59991;52.140;5.428;2022-11-11T02:55:10;102814.56;;;9.99;91.47
72116;BME280;59991;52.140;5.428;2022-11-11T02:55:42;102822.41;;;10.00;91.67
72116;BME280;59991;52.140;5.428;2022-11-11T02:56:13;102818.41;;;9.98;91.31
72116;BME280;59991;52.140;5.428;2022-11-11T02:57:04;102812.63;;;9.99;91.23
72116;BME280;59991;52.140;5.428;2022-11-11T02:57:39;102819.69;;;10.00;91.57
72116;BME280;59991;52.140;5.428;2022-11-11T02:58:12;102814.56;;;9.99;91.28
72116;BME280;59991;52.140;5.428;2022-11-11T02:58:43;102818.09;;;9.99;91.25
72116;BME280;59991;52.140;5.428;2022-11-11T02:59:15;102816.50;;;9.98;91.39
72116;BME280;59991;52.140;5.428;2022-11-11T02:59:46;102816.50;;;9.98;91.67
72116;BME280;59991;52.140;5.428;2022-11-11T03:00:23;102820.00;;;9.99;91.48
72116;BME280;59991;52.140;5.428;2022-11-11T03:00:55;102813.94;;;9.93;90.98
72116;BME280;59991;52.140;5.428;2022-11-11T03:01:27;102816.00;;;9.96;91.70
72116;BME280;59991;52.140;5.428;2022-11-11T03:02:01;102805.91;;;9.97;91.58
72116;BME280;59991;52.140;5.428;2022-11-11T03:02:33;102813.59;;;9.95;91.39
72116;BME280;59991;52.140;5.428;2022-11-11T03:03:07;102821.63;;;10.00;91.15
72116;BME280;59991;52.140;5.428;2022-11-11T03:03:39;102810.56;;;9.96;91.35
72116;BME280;59991;52.140;5.428;2022-11-11T03:04:11;102818.41;;;9.98;91.56
72116;BME280;59991;52.140;5.428;2022-11-11T03:04:47;102810.88;;;9.95;91.31
72116;BME280;59991;52.140;5.428;2022-11-11T03:05:24;102809.75;;;9.96;91.47
72116;BME280;59991;52.140;5.428;2022-11-11T03:05:58;102813.59;;;9.95;91.06
72116;BME280;59991;52.140;5.428;2022-11-11T03:06:33;102808.97;;;9.95;91.41
72116;BME280;59991;52.140;5.428;2022-11-11T03:07:05;102811.69;;;9.95;91.19
72116;BME280;59991;52.140;5.428;2022-11-11T03:07:37;102813.59;;;9.95;91.11
72116;BME280;59991;52.140;5.428;2022-11-11T03:08:11;102823.88;;;9.98;91.14
72116;BME280;59991;52.140;5.428;2022-11-11T03:08:43;102815.22;;;9.96;91.15
72116;BME280;59991;52.140;5.428;2022-11-11T03:09:21;102807.69;;;9.93;91.32
72116;BME280;59991;52.140;5.428;2022-11-11T03:09:55;102817.63;;;9.97;91.30
72116;BME280;59991;52.140;5.428;2022-11-11T03:10:27;102815.53;;;9.94;91.51
72116;BME280;59991;52.140;5.428;2022-11-11T03:10:59;102815.84;;;9.93;91.78
72116;BME280;59991;52.140;5.428;2022-11-11T03:11:30;102832.34;;;9.96;91.51
72116;BME280;59991;52.140;5.428;2022-11-11T03:12:02;102813.59;;;9.95;91.88
72116;BME280;59991;52.140;5.428;2022-11-11T03:12:34;102820.50;;;9.92;91.10
72116;BME280;59991;52.140;5.428;2022-11-11T03:13:05;102829.63;;;9.96;91.48
72116;BME280;59991;52.140;5.428;2022-11-11T03:13:38;102827.22;;;9.95;91.27
72116;BME280;59991;52.140;5.428;2022-11-11T03:14:12;102823.22;;;9.92;91.52
72116;BME280;59991;52.140;5.428;2022-11-11T03:14:44;102820.19;;;9.94;91.28